sensor_id;sensor_type;location;lat;lon;timestamp;temperature;humidity
19031;DHT22;9648;51.130;13.978;2022-10-04T00:01:45;12.00;99.90
19031;DHT22;9648;51.130;13.978;2022-10-04T00:04:18;12.00;99.90
19031;DHT22;9648;51.130;13.978;2022-10-04T00:06:50;12.00;99.90
19031;DHT22;9648;51.130;13.978;2022-10-04T00:09:20;12.00;99.90
19031;DHT22;9648;51.130;13.978;2022-10-04T00:11:49;12.00;99.90
19031;DHT22;9648;51.130;13.978;2022-10-04T00:14:21;12.00;99.90
19031;DHT22;9648;51.130;13.978;2022-10-04T00:16:50;12.00;99.90
19031;DHT22;9648;51.130;13.978;2022-10-04T00:19:24;12.00;99.90
19031;DHT22;9648;51.130;13.978;2022-10-04T00:22:11;12.00;99.90
19031;DHT22;9648;51.130;13.978;2022-10-04T00:25:13;12.00;99.90
19031;DHT22;9648;51.130;13.978;2022-10-04T00:31:13;12.00;99.90
19031;DHT22;9648;51.130;13.978;2022-10-04T00:33:42;12.00;99.90
19031;DHT22;9648;51.130;13.978;2022-10-04T00:36:39;12.00;99.90
19031;DHT22;9648;51.130;13.978;2022-10-04T00:39:36;11.90;99.90
19031;DHT22;9648;51.130;13.978;2022-10-04T00:42:18;12.00;99.90
19031;DHT22;9648;51.130;13.978;2022-10-04T00:44:51;12.00;99.90
19031;DHT22;9648;51.130;13.978;2022-10-04T00:47:25;12.00;99.90
19031;DHT22;9648;51.130;13.978;2022-10-04T00:50:01;12.00;99.90
19031;DHT22;9648;51.130;13.978;2022-10-04T00:52:33;12.00;99.90
19031;DHT22;9648;51.130;13.978;2022-10-04T00:55:03;12.00;99.90
19031;DHT22;9648;51.130;13.978;2022-10-04T00:57:36;11.90;99.90
19031;DHT22;9648;51.130;13.978;2022-10-04T01:00:10;11.90;99.90
19031;DHT22;9648;51.130;13.978;2022-10-04T01:02:45;11.90;99.90
19031;DHT22;9648;51.130;13.978;2022-10-04T01:05:20;12.00;99.90
19031;DHT22;9648;51.130;13.978;2022-10-04T01:07:51;12.00;99.90
19031;DHT22;9648;51.130;13.978;2022-10-04T01:10:23;12.00;99.90
19031;DHT22;9648;51.130;13.978;2022-10-04T01:12:55;11.90;99.90
19031;DHT22;9648;51.130;13.978;2022-10-04T01:15:29;11.90;99.90
19031;DHT22;9648;51.130;13.978;2022-10-04T01:18:11;12.00;99.90
19031;DHT22;9648;51.130;13.978;2022-10-04T01:20:50;12.00;99.90
19031;DHT22;9648;51.130;13.978;2022-10-04T01:23:39;11.90;99.90
19031;DHT22;9648;51.130;13.978;2022-10-04T01:26:34;11.90;99.90
19031;DHT22;9648;51.130;13.978;2022-10-04T01:29:06;12.00;99.90
19031;DHT22;9648;51.130;13.978;2022-10-04T01:31:35;12.00;99.90
19031;DHT22;9648;51.130;13.978;2022-10-04T01:34:03;12.00;99.90
19031;DHT22;9648;51.130;13.978;2022-10-04T01:36:30;11.90;99.90
19031;DHT22;9648;51.130;13.978;2022-10-04T01:38:59;11.90;99.90
19031;DHT22;9648;51.130;13.978;2022-10-04T01:41:29;11.90;99.90
19031;DHT22;9648;51.130;13.978;2022-10-04T01:43:58;11.90;99.90
19031;DHT22;9648;51.130;13.978;2022-10-04T01:46:30;11.90;99.90
19031;DHT22;9648;51.130;13.978;2022-10-04T01:49:00;11.90;99.90
19031;DHT22;9648;51.130;13.978;2022-10-04T01:51:31;11.90;99.90
19031;DHT22;9648;51.130;13.978;2022-10-04T01:54:06;11.90;99.90
19031;DHT22;9648;51.130;13.978;2022-10-04T01:56:41;11.90;99.90
19031;DHT22;9648;51.130;13.978;2022-10-04T01:59:14;11.90;99.90
19031;DHT22;9648;51.130;13.978;2022-10-04T02:01:44;11.90;99.90
19031;DHT22;9648;51.130;13.978;2022-10-04T02:04:15;11.80;99.90
19031;DHT22;9648;51.130;13.978;2022-10-04T02:06:44;11.80;99.90
19031;DHT22;9648;51.130;13.978;2022-10-04T02:09:16;11.80;99.90
19031;DHT22;9648;51.130;13.978;2022-10-04T02:11:47;11.90;99.90
19031;DHT22;9648;51.130;13.978;2022-10-04T02:14:18;11.80;99.90
19031;DHT22;9648;51.130;13.978;2022-10-04T02:16:46;11.80;99.90
19031;DHT22;9648;51.130;13.978;2022-10-04T02:19:18;11.80;99.90
19031;DHT22;9648;51.130;13.978;2022-10-04T02:21:46;11.80;99.90
19031;DHT22;9648;51.130;13.978;2022-10-04T02:24:15;11.80;99.90
19031;DHT22;9648;51.130;13.978;2022-10-04T02:26:48;11.80;99.90
19031;DHT22;9648;51.130;13.978;2022-10-04T02:29:16;11.70;99.90
19031;DHT22;9648;51.130;13.978;2022-10-04T02:31:43;11.70;99.90
19031;DHT22;9648;51.130;13.978;2022-10-04T02:34:28;11.70;99.90
19031;DHT22;9648;51.130;13.978;2022-10-04T02:36:56;11.70;99.90
19031;DHT22;9648;51.130;13.978;2022-10-04T02:39:25;11.70;99.90
19031;DHT22;9648;51.130;13.978;2022-10-04T02:41:57;11.70;99.90
19031;DHT22;9648;51.130;13.978;2022-10-04T02:44:29;11.70;99.90
19031;DHT22;9648;51.130;13.978;2022-10-04T02:47:05;11.70;99.90
19031;DHT22;9648;51.130;13.978;2022-10-04T02:49:34;11.70;99.90
19031;DHT22;9648;51.130;13.978;2022-10-04T02:52:06;11.70;99.90
19031;DHT22;9648;51.130;13.978;2022-10-04T02:54:39;11.70;99.90
19031;DHT22;9648;51.130;13.978;2022-10-04T02:57:13;11.70;99.90
19031;DHT22;9648;51.130;13.978;2022-10-04T02:59:43;11.70;99.90
19031;DHT22;9648;51.130;13.978;2022-10-04T03:02:21;11.70;99.90
19031;DHT22;9648;51.130;13.978;2022-10-04T03:04:49;11.70;99.90
19031;DHT22;9648;51.130;13.978;2022-10-04T03:07:19;11.70;99.90
19031;DHT22;9648;51.130;13.978;2022-10-04T03:09:48;11.70;99.90
19031;DHT22;9648;51.130;13.978;2022-10-04T03:12:16;11.70;99.90
19031;DHT22;9648;51.130;13.978;2022-10-04T03:14:43;11.70;99.90
19031;DHT22;9648;51.130;13.978;2022-10-04T03:17:10;11.70;99.90
19031;DHT22;9648;51.130;13.978;2022-10-04T03:19:40;11.70;99.90
19031;DHT22;9648;51.130;13.978;2022-10-04T03:22:10;11.70;99.90
19031;DHT22;9648;51.130;13.978;2022-10-04T03:24:42;11.70;99.90
19031;DHT22;9648;51.130;13.978;2022-10-04T03:27:15;11.70;99.90
19031;DHT22;9648;51.130;13.978;2022-10-04T03:29:43;11.70;99.90
19031;DHT22;9648;51.130;13.978;2022-10-04T03:32:13;11.70;99.90
19031;DHT22;9648;51.130;13.978;2022-10-04T03:34:41;11.60;99.90
19031;DHT22;9648;51.130;13.978;2022-10-04T03:37:15;11.60;99.90
19031;DHT22;9648;51.130;13.978;2022-10-04T03:39:46;11.60;99.90
19031;DHT22;9648;51.130;13.978;2022-10-04T03:42:16;11.60;99.90
19031;DHT22;9648;51.130;13.978;2022-10-04T03:44:44;11.60;99.90
19031;DHT22;9648;51.130;13.978;2022-10-04T03:47:14;11.60;99.90
19031;DHT22;9648;51.130;13.978;2022-10-04T03:49:42;11.60;99.90
19031;DHT22;9648;51.130;13.978;2022-10-04T03:52:16;11.60;99.90
19031;DHT22;9648;51.130;13.978;2022-10-04T03:54:43;11.60;99.90
19031;DHT22;9648;51.130;13.978;2022-10-04T03:57:11;11.50;99.90
19031;DHT22;9648;51.130;13.978;2022-10-04T03:59:39;11.50;99.90
19031;DHT22;9648;51.130;13.978;2022-10-04T04:02:11;11.50;99.90
19031;DHT22;9648;51.130;13.978;2022-10-04T04:04:44;11.50;99.90
19031;DHT22;9648;51.130;13.978;2022-10-04T04:07:18;11.50;99.90
19031;DHT22;9648;51.130;13.978;2022-10-04T04:09:48;11.40;99.90
19031;DHT22;9648;51.130;13.978;2022-10-04T04:12:19;11.50;99.90
19031;DHT22;9648;51.130;13.978;2022-10-04T04:14:50;11.50;99.90
19031;DHT22;9648;51.130;13.978;2022-10-04T04:17:38;11.40;99.90
19031;DHT22;9648;51.130;13.978;2022-10-04T04:20:17;11.40;99.90
19031;DHT22;9648;51.130;13.978;2022-10-04T04:22:54;11.50;99.90
19031;DHT22;9648;51.130;13.978;2022-10-04T04:25:23;11.50;99.90
19031;DHT22;9648;51.130;13.978;2022-10-04T04:27:55;11.50;99.90
19031;DHT22;9648;51.130;13.978;2022-10-04T04:30:27;11.50;99.90
19031;DHT22;9648;51.130;13.978;2022-10-04T04:33:06;11.40;99.90
19031;DHT22;9648;51.130;13.978;2022-10-04T04:35:34;11.40;99.90
19031;DHT22;9648;51.130;13.978;2022-10-04T04:38:04;11.40;99.90
19031;DHT22;9648;51.130;13.978;2022-10-04T04:40:31;11.40;99.90
19031;DHT22;9648;51.130;13.978;2022-10-04T04:43:00;11.40;99.90
19031;DHT22;9648;51.130;13.978;2022-10-04T04:45:31;11.40;99.90
19031;DHT22;9648;51.130;13.978;2022-10-04T04:48:00;11.40;99.90
19031;DHT22;9648;51.130;13.978;2022-10-04T04:50:30;11.40;99.90
19031;DHT22;9648;51.130;13.978;2022-10-04T04:53:02;11.40;99.90
19031;DHT22;9648;51.130;13.978;2022-10-04T04:55:33;11.40;99.90
19031;DHT22;9648;51.130;13.978;2022-10-04T04:58:03;11.40;99.90
19031;DHT22;9648;51.130;13.978;2022-10-04T05:00:35;11.30;99.90
19031;DHT22;9648;51.130;13.978;2022-10-04T05:03:05;11.40;99.90
19031;DHT22;9648;51.130;13.978;2022-10-04T05:05:33;11.40;99.90
19031;DHT22;9648;51.130;13.978;2022-10-04T05:08:12;11.40;99.90
19031;DHT22;9648;51.130;13.978;2022-10-04T05:10:41;11.40;99.90
19031;DHT22;9648;51.130;13.978;2022-10-04T05:13:09;11.40;99.90
19031;DHT22;9648;51.130;13.978;2022-10-04T05:15:39;11.40;99.90
19031;DHT22;9648;51.130;13.978;2022-10-04T05:18:14;11.50;99.90
19031;DHT22;9648;51.130;13.978;2022-10-04T05:20:48;11.40;99.90
19031;DHT22;9648;51.130;13.978;2022-10-04T05:23:16;11.40;99.90
19031;DHT22;9648;51.130;13.978;2022-10-04T05:25:43;11.30;99.90
19031;DHT22;9648;51.130;13.978;2022-10-04T05:28:10;11.40;99.90
19031;DHT22;9648;51.130;13.978;2022-10-04T05:30:52;11.30;99.90
19031;DHT22;9648;51.130;13.978;2022-10-04T05:33:23;11.30;99.90
19031;DHT22;9648;51.130;13.978;2022-10-04T05:36:14;11.30;99.90
19031;DHT22;9648;51.130;13.978;2022-10-04T05:38:50;11.30;99.90
19031;DHT22;9648;51.130;13.978;2022-10-04T05:41:23;11.40;99.90
19031;DHT22;9648;51.130;13.978;2022-10-04T05:43:53;11.40;99.90
19031;DHT22;9648;51.130;13.978;2022-10-04T05:46:23;11.40;99.90
19031;DHT22;9648;51.130;13.978;2022-10-04T05:48:54;11.30;99.90
19031;DHT22;9648;51.130;13.978;2022-10-04T05:51:24;11.30;99.90
19031;DHT22;9648;51.130;13.978;2022-10-04T05:53:53;11.30;99.90
19031;DHT22;9648;51.130;13.978;2022-10-04T06:00:09;11.40;99.90
19031;DHT22;9648;51.130;13.978;2022-10-04T06:03:12;11.30;99.90
19031;DHT22;9648;51.130;13.978;2022-10-04T06:05:47;11.40;99.90
19031;DHT22;9648;51.130;13.978;2022-10-04T06:08:22;11.40;99.90
19031;DHT22;9648;51.130;13.978;2022-10-04T06:11:08;11.40;99.90
19031;DHT22;9648;51.130;13.978;2022-10-04T06:20:10;11.40;99.90
19031;DHT22;9648;51.130;13.978;2022-10-04T06:22:42;11.40;99.90
19031;DHT22;9648;51.130;13.978;2022-10-04T06:25:14;11.40;99.90
19031;DHT22;9648;51.130;13.978;2022-10-04T06:27:49;11.40;99.90
19031;DHT22;9648;51.130;13.978;2022-10-04T06:30:19;11.30;99.90
19031;DHT22;9648;51.130;13.978;2022-10-04T06:33:01;11.30;99.90
19031;DHT22;9648;51.130;13.978;2022-10-04T06:35:45;11.40;99.90
19031;DHT22;9648;51.130;13.978;2022-10-04T06:38:47;11.40;99.90
19031;DHT22;9648;51.130;13.978;2022-10-04T06:41:29;11.50;99.90
19031;DHT22;9648;51.130;13.978;2022-10-04T06:44:30;11.50;99.90
19031;DHT22;9648;51.130;13.978;2022-10-04T06:47:13;11.60;99.90
19031;DHT22;9648;51.130;13.978;2022-10-04T06:49:47;11.60;99.90
19031;DHT22;9648;51.130;13.978;2022-10-04T06:52:26;11.60;99.90
19031;DHT22;9648;51.130;13.978;2022-10-04T07:00:58;11.50;99.90
19031;DHT22;9648;51.130;13.978;2022-10-04T07:03:32;11.60;99.90
19031;DHT22;9648;51.130;13.978;2022-10-04T07:06:03;11.60;99.90
19031;DHT22;9648;51.130;13.978;2022-10-04T07:08:38;11.60;99.90
19031;DHT22;9648;51.130;13.978;2022-10-04T07:11:13;11.70;99.90
19031;DHT22;9648;51.130;13.978;2022-10-04T07:13:46;11.70;99.90
19031;DHT22;9648;51.130;13.978;2022-10-04T07:16:28;11.80;99.90
19031;DHT22;9648;51.130;13.978;2022-10-04T07:19:04;11.90;99.90
19031;DHT22;9648;51.130;13.978;2022-10-04T07:21:37;11.90;99.90
19031;DHT22;9648;51.130;13.978;2022-10-04T07:24:09;12.00;99.90
19031;DHT22;9648;51.130;13.978;2022-10-04T07:26:43;11.90;99.90
19031;DHT22;9648;51.130;13.978;2022-10-04T07:29:14;12.00;99.90
19031;DHT22;9648;51.130;13.978;2022-10-04T07:31:50;12.10;99.90
19031;DHT22;9648;51.130;13.978;2022-10-04T07:34:23;12.10;99.90
19031;DHT22;9648;51.130;13.978;2022-10-04T07:36:52;12.20;99.90
19031;DHT22;9648;51.130;13.978;2022-10-04T07:39:24;12.20;99.90
19031;DHT22;9648;51.130;13.978;2022-10-04T07:41:55;12.30;99.90
19031;DHT22;9648;51.130;13.978;2022-10-04T07:44:33;12.50;99.90
19031;DHT22;9648;51.130;13.978;2022-10-04T07:47:04;12.60;99.90
19031;DHT22;9648;51.130;13.978;2022-10-04T07:49:39;12.70;99.90
19031;DHT22;9648;51.130;13.978;2022-10-04T07:52:42;12.70;99.90
19031;DHT22;9648;51.130;13.978;2022-10-04T07:55:24;12.70;99.90
19031;DHT22;9648;51.130;13.978;2022-10-04T07:58:01;12.80;99.90
19031;DHT22;9648;51.130;13.978;2022-10-04T08:00:39;12.80;99.90
19031;DHT22;9648;51.130;13.978;2022-10-04T08:03:23;12.80;99.90
19031;DHT22;9648;51.130;13.978;2022-10-04T08:05:58;12.80;99.90
19031;DHT22;9648;51.130;13.978;2022-10-04T08:08:36;12.80;99.90
19031;DHT22;9648;51.130;13.978;2022-10-04T08:11:18;12.90;99.90
19031;DHT22;9648;51.130;13.978;2022-10-04T08:13:51;12.80;99.90
19031;DHT22;9648;51.130;13.978;2022-10-04T08:16:32;12.80;99.90
19031;DHT22;9648;51.130;13.978;2022-10-04T08:19:16;12.70;99.90
19031;DHT22;9648;51.130;13.978;2022-10-04T08:21:55;12.70;99.90
19031;DHT22;9648;51.130;13.978;2022-10-04T08:24:29;12.80;99.90
19031;DHT22;9648;51.130;13.978;2022-10-04T08:30:01;13.00;99.90
19031;DHT22;9648;51.130;13.978;2022-10-04T08:32:47;13.20;99.90
19031;DHT22;9648;51.130;13.978;2022-10-04T08:35:33;13.30;99.90
19031;DHT22;9648;51.130;13.978;2022-10-04T08:38:19;13.40;99.90
19031;DHT22;9648;51.130;13.978;2022-10-04T08:50:48;13.70;99.90
19031;DHT22;9648;51.130;13.978;2022-10-04T08:53:44;13.70;99.90
19031;DHT22;9648;51.130;13.978;2022-10-04T08:56:23;13.80;99.90
19031;DHT22;9648;51.130;13.978;2022-10-04T08:59:16;13.90;99.90
19031;DHT22;9648;51.130;13.978;2022-10-04T09:05:12;14.10;99.90
19031;DHT22;9648;51.130;13.978;2022-10-04T09:08:16;14.10;99.90
19031;DHT22;9648;51.130;13.978;2022-10-04T09:11:07;14.20;99.90
19031;DHT22;9648;51.130;13.978;2022-10-04T09:13:42;14.20;99.90
19031;DHT22;9648;51.130;13.978;2022-10-04T09:16:15;14.30;99.90
19031;DHT22;9648;51.130;13.978;2022-10-04T09:18:50;14.40;99.90
19031;DHT22;9648;51.130;13.978;2022-10-04T09:21:26;14.40;99.90
19031;DHT22;9648;51.130;13.978;2022-10-04T09:24:16;14.50;99.90
19031;DHT22;9648;51.130;13.978;2022-10-04T09:26:51;14.50;99.90
19031;DHT22;9648;51.130;13.978;2022-10-04T09:29:33;14.60;99.90
19031;DHT22;9648;51.130;13.978;2022-10-04T09:47:22;14.50;99.90
19031;DHT22;9648;51.130;13.978;2022-10-04T09:53:28;14.40;99.90
19031;DHT22;9648;51.130;13.978;2022-10-04T09:56:30;14.40;99.90
19031;DHT22;9648;51.130;13.978;2022-10-04T09:59:21;14.50;99.90
19031;DHT22;9648;51.130;13.978;2022-10-04T10:04:47;14.70;99.90
19031;DHT22;9648;51.130;13.978;2022-10-04T10:07:28;14.70;99.90
19031;DHT22;9648;51.130;13.978;2022-10-04T10:10:02;14.80;99.90
19031;DHT22;9648;51.130;13.978;2022-10-04T10:13:17;14.70;99.90
19031;DHT22;9648;51.130;13.978;2022-10-04T10:16:09;14.60;99.90
19031;DHT22;9648;51.130;13.978;2022-10-04T10:18:52;14.50;99.90
19031;DHT22;9648;51.130;13.978;2022-10-04T10:21:39;14.50;99.90
19031;DHT22;9648;51.130;13.978;2022-10-04T10:27:22;14.90;99.90
19031;DHT22;9648;51.130;13.978;2022-10-04T10:30:13;15.10;99.90
19031;DHT22;9648;51.130;13.978;2022-10-04T10:36:17;15.40;99.90
19031;DHT22;9648;51.130;13.978;2022-10-04T10:39:13;15.60;99.90
19031;DHT22;9648;51.130;13.978;2022-10-04T10:41:54;15.70;99.90
19031;DHT22;9648;51.130;13.978;2022-10-04T10:44:32;15.80;99.90
19031;DHT22;9648;51.130;13.978;2022-10-04T10:47:24;15.90;99.90
19031;DHT22;9648;51.130;13.978;2022-10-04T10:50:05;15.90;99.90
19031;DHT22;9648;51.130;13.978;2022-10-04T10:53:08;15.80;99.90
19031;DHT22;9648;51.130;13.978;2022-10-04T10:56:23;15.80;99.90
19031;DHT22;9648;51.130;13.978;2022-10-04T10:59:27;15.90;99.90
19031;DHT22;9648;51.130;13.978;2022-10-04T11:05:13;16.10;99.90
19031;DHT22;9648;51.130;13.978;2022-10-04T11:07:48;16.20;99.90
19031;DHT22;9648;51.130;13.978;2022-10-04T11:13:48;16.10;99.90
19031;DHT22;9648;51.130;13.978;2022-10-04T11:16:38;16.00;99.90
19031;DHT22;9648;51.130;13.978;2022-10-04T11:19:35;16.00;99.90
19031;DHT22;9648;51.130;13.978;2022-10-04T11:22:42;15.90;99.90
19031;DHT22;9648;51.130;13.978;2022-10-04T11:25:37;16.00;99.90
19031;DHT22;9648;51.130;13.978;2022-10-04T11:28:15;15.80;99.90
19031;DHT22;9648;51.130;13.978;2022-10-04T11:36:56;15.80;99.90
19031;DHT22;9648;51.130;13.978;2022-10-04T11:39:53;15.90;99.90
19031;DHT22;9648;51.130;13.978;2022-10-04T11:42:32;16.00;99.90
19031;DHT22;9648;51.130;13.978;2022-10-04T11:45:16;16.00;99.90
19031;DHT22;9648;51.130;13.978;2022-10-04T11:47:56;16.10;99.90
19031;DHT22;9648;51.130;13.978;2022-10-04T11:50:49;16.10;99.90
19031;DHT22;9648;51.130;13.978;2022-10-04T11:53:58;16.10;99.90
19031;DHT22;9648;51.130;13.978;2022-10-04T11:56:39;16.10;99.90
19031;DHT22;9648;51.130;13.978;2022-10-04T11:59:21;16.00;99.90
19031;DHT22;9648;51.130;13.978;2022-10-04T12:02:12;15.90;99.90
19031;DHT22;9648;51.130;13.978;2022-10-04T12:05:22;15.90;99.90
19031;DHT22;9648;51.130;13.978;2022-10-04T12:08:11;15.80;99.90
19031;DHT22;9648;51.130;13.978;2022-10-04T12:10:42;15.80;99.90
19031;DHT22;9648;51.130;13.978;2022-10-04T12:13:38;15.80;99.90
19031;DHT22;9648;51.130;13.978;2022-10-04T12:16:35;15.80;99.90
19031;DHT22;9648;51.130;13.978;2022-10-04T12:19:23;15.80;99.90
19031;DHT22;9648;51.130;13.978;2022-10-04T12:22:02;15.80;99.90
19031;DHT22;9648;51.130;13.978;2022-10-04T12:25:06;15.80;99.90
19031;DHT22;9648;51.130;13.978;2022-10-04T12:28:11;15.80;99.90
19031;DHT22;9648;51.130;13.978;2022-10-04T12:31:01;15.80;99.90
19031;DHT22;9648;51.130;13.978;2022-10-04T12:33:33;15.90;99.90
19031;DHT22;9648;51.130;13.978;2022-10-04T12:36:10;16.00;99.90
19031;DHT22;9648;51.130;13.978;2022-10-04T12:38:52;16.00;99.90
19031;DHT22;9648;51.130;13.978;2022-10-04T12:41:30;16.00;99.90
19031;DHT22;9648;51.130;13.978;2022-10-04T12:44:05;16.00;99.90
19031;DHT22;9648;51.130;13.978;2022-10-04T12:46:44;16.00;99.90
19031;DHT22;9648;51.130;13.978;2022-10-04T12:49:27;16.10;99.90
19031;DHT22;9648;51.130;13.978;2022-10-04T12:52:02;16.20;99.90
19031;DHT22;9648;51.130;13.978;2022-10-04T12:54:35;16.30;99.90
19031;DHT22;9648;51.130;13.978;2022-10-04T12:57:30;16.40;99.90
19031;DHT22;9648;51.130;13.978;2022-10-04T13:00:12;16.50;99.90
19031;DHT22;9648;51.130;13.978;2022-10-04T13:03:12;16.40;99.90
19031;DHT22;9648;51.130;13.978;2022-10-04T13:05:54;16.30;99.90
19031;DHT22;9648;51.130;13.978;2022-10-04T13:08:39;16.20;99.90
19031;DHT22;9648;51.130;13.978;2022-10-04T13:11:29;16.10;99.90
19031;DHT22;9648;51.130;13.978;2022-10-04T13:14:30;16.00;99.90
19031;DHT22;9648;51.130;13.978;2022-10-04T13:17:04;15.90;99.90
19031;DHT22;9648;51.130;13.978;2022-10-04T13:19:43;15.80;99.90
19031;DHT22;9648;51.130;13.978;2022-10-04T13:22:43;15.60;99.90
19031;DHT22;9648;51.130;13.978;2022-10-04T13:25:22;15.60;99.90
19031;DHT22;9648;51.130;13.978;2022-10-04T13:27:59;15.40;99.90
19031;DHT22;9648;51.130;13.978;2022-10-04T13:30:33;15.40;99.90
19031;DHT22;9648;51.130;13.978;2022-10-04T13:33:12;15.30;99.90
19031;DHT22;9648;51.130;13.978;2022-10-04T13:35:50;15.30;99.90
19031;DHT22;9648;51.130;13.978;2022-10-04T13:38:39;15.30;99.90
19031;DHT22;9648;51.130;13.978;2022-10-04T13:41:18;15.50;99.90
19031;DHT22;9648;51.130;13.978;2022-10-04T13:44:19;15.60;99.90
19031;DHT22;9648;51.130;13.978;2022-10-04T13:47:02;15.80;99.90
19031;DHT22;9648;51.130;13.978;2022-10-04T13:49:42;16.00;99.90
19031;DHT22;9648;51.130;13.978;2022-10-04T13:52:22;16.20;99.90
19031;DHT22;9648;51.130;13.978;2022-10-04T13:55:19;16.30;99.90
19031;DHT22;9648;51.130;13.978;2022-10-04T13:58:15;16.30;99.90
19031;DHT22;9648;51.130;13.978;2022-10-04T14:00:58;16.40;99.90
19031;DHT22;9648;51.130;13.978;2022-10-04T14:03:44;16.50;99.90
19031;DHT22;9648;51.130;13.978;2022-10-04T14:06:31;16.60;99.90
19031;DHT22;9648;51.130;13.978;2022-10-04T14:09:21;16.60;99.90
19031;DHT22;9648;51.130;13.978;2022-10-04T14:12:12;16.60;99.90
19031;DHT22;9648;51.130;13.978;2022-10-04T14:15:05;16.60;99.90
19031;DHT22;9648;51.130;13.978;2022-10-04T14:18:15;16.50;99.90
19031;DHT22;9648;51.130;13.978;2022-10-04T14:21:17;16.50;99.90
19031;DHT22;9648;51.130;13.978;2022-10-04T14:24:14;16.40;99.90
19031;DHT22;9648;51.130;13.978;2022-10-04T14:27:11;16.40;99.90
19031;DHT22;9648;51.130;13.978;2022-10-04T14:29:59;16.40;99.90
19031;DHT22;9648;51.130;13.978;2022-10-04T14:35:30;16.30;99.90
19031;DHT22;9648;51.130;13.978;2022-10-04T14:38:22;16.20;99.90
19031;DHT22;9648;51.130;13.978;2022-10-04T14:41:19;16.20;99.90
19031;DHT22;9648;51.130;13.978;2022-10-04T14:44:32;16.30;99.90
19031;DHT22;9648;51.130;13.978;2022-10-04T14:47:26;16.30;99.90
19031;DHT22;9648;51.130;13.978;2022-10-04T14:50:02;16.30;99.90
19031;DHT22;9648;51.130;13.978;2022-10-04T14:52:37;16.30;99.90
19031;DHT22;9648;51.130;13.978;2022-10-04T14:55:16;16.20;99.90
19031;DHT22;9648;51.130;13.978;2022-10-04T14:58:01;16.10;99.90
19031;DHT22;9648;51.130;13.978;2022-10-04T15:00:51;16.00;99.90
19031;DHT22;9648;51.130;13.978;2022-10-04T15:03:30;16.00;99.90
19031;DHT22;9648;51.130;13.978;2022-10-04T15:06:27;16.00;99.90
19031;DHT22;9648;51.130;13.978;2022-10-04T15:09:23;16.00;99.90
19031;DHT22;9648;51.130;13.978;2022-10-04T15:11:55;15.90;99.90
19031;DHT22;9648;51.130;13.978;2022-10-04T15:14:30;15.90;99.90
19031;DHT22;9648;51.130;13.978;2022-10-04T15:17:02;15.90;99.90
19031;DHT22;9648;51.130;13.978;2022-10-04T15:19:33;15.80;99.90
19031;DHT22;9648;51.130;13.978;2022-10-04T15:22:08;15.70;99.90
19031;DHT22;9648;51.130;13.978;2022-10-04T15:24:46;15.60;99.90
19031;DHT22;9648;51.130;13.978;2022-10-04T15:30:30;15.40;99.90
19031;DHT22;9648;51.130;13.978;2022-10-04T15:33:18;15.40;99.90
19031;DHT22;9648;51.130;13.978;2022-10-04T15:36:13;15.40;99.90
19031;DHT22;9648;51.130;13.978;2022-10-04T15:38:47;15.30;99.90
19031;DHT22;9648;51.130;13.978;2022-10-04T15:41:23;15.20;99.90
19031;DHT22;9648;51.130;13.978;2022-10-04T15:47:08;15.10;99.90
19031;DHT22;9648;51.130;13.978;2022-10-04T15:49:52;15.00;99.90
19031;DHT22;9648;51.130;13.978;2022-10-04T15:52:46;14.90;99.90
19031;DHT22;9648;51.130;13.978;2022-10-04T15:55:22;14.90;99.90
19031;DHT22;9648;51.130;13.978;2022-10-04T15:58:18;14.80;99.90
19031;DHT22;9648;51.130;13.978;2022-10-04T16:01:03;14.60;99.90
19031;DHT22;9648;51.130;13.978;2022-10-04T16:03:42;14.60;99.90
19031;DHT22;9648;51.130;13.978;2022-10-04T16:06:17;14.50;99.90
19031;DHT22;9648;51.130;13.978;2022-10-04T16:09:15;14.40;99.90
19031;DHT22;9648;51.130;13.978;2022-10-04T16:14:53;14.20;99.90
19031;DHT22;9648;51.130;13.978;2022-10-04T16:20:32;14.00;99.90
19031;DHT22;9648;51.130;13.978;2022-10-04T16:23:20;13.90;99.90
19031;DHT22;9648;51.130;13.978;2022-10-04T16:25:49;13.80;99.90
19031;DHT22;9648;51.130;13.978;2022-10-04T16:28:21;13.70;99.90
19031;DHT22;9648;51.130;13.978;2022-10-04T16:31:16;13.60;99.90
19031;DHT22;9648;51.130;13.978;2022-10-04T16:33:52;13.50;99.90
19031;DHT22;9648;51.130;13.978;2022-10-04T16:36:25;13.40;99.90
19031;DHT22;9648;51.130;13.978;2022-10-04T16:38:59;13.30;99.90
19031;DHT22;9648;51.130;13.978;2022-10-04T16:41:51;13.20;99.90
19031;DHT22;9648;51.130;13.978;2022-10-04T16:44:30;13.00;99.90
19031;DHT22;9648;51.130;13.978;2022-10-04T16:47:00;12.90;99.90
19031;DHT22;9648;51.130;13.978;2022-10-04T16:49:34;12.80;99.90
19031;DHT22;9648;51.130;13.978;2022-10-04T16:55:23;12.60;99.90
19031;DHT22;9648;51.130;13.978;2022-10-04T17:01:50;12.30;99.90
19031;DHT22;9648;51.130;13.978;2022-10-04T17:04:44;12.20;99.90
19031;DHT22;9648;51.130;13.978;2022-10-04T17:07:26;12.10;99.90
19031;DHT22;9648;51.130;13.978;2022-10-04T17:09:57;12.00;99.90
19031;DHT22;9648;51.130;13.978;2022-10-04T17:12:32;12.00;99.90
19031;DHT22;9648;51.130;13.978;2022-10-04T17:15:10;11.80;99.90
19031;DHT22;9648;51.130;13.978;2022-10-04T17:17:56;11.70;99.90
19031;DHT22;9648;51.130;13.978;2022-10-04T17:20:35;11.60;99.90
19031;DHT22;9648;51.130;13.978;2022-10-04T17:23:15;11.50;99.90
19031;DHT22;9648;51.130;13.978;2022-10-04T17:25:52;11.40;99.90
19031;DHT22;9648;51.130;13.978;2022-10-04T17:28:26;11.40;99.90
19031;DHT22;9648;51.130;13.978;2022-10-04T17:30:59;11.30;99.90
19031;DHT22;9648;51.130;13.978;2022-10-04T17:33:39;11.20;99.90
19031;DHT22;9648;51.130;13.978;2022-10-04T17:36:32;11.10;99.90
19031;DHT22;9648;51.130;13.978;2022-10-04T17:39:10;11.00;99.90
19031;DHT22;9648;51.130;13.978;2022-10-04T17:41:51;11.00;99.90
19031;DHT22;9648;51.130;13.978;2022-10-04T17:44:39;10.90;99.90
19031;DHT22;9648;51.130;13.978;2022-10-04T17:47:12;10.90;99.90
19031;DHT22;9648;51.130;13.978;2022-10-04T17:49:51;10.80;99.90
19031;DHT22;9648;51.130;13.978;2022-10-04T17:52:54;10.70;99.90
19031;DHT22;9648;51.130;13.978;2022-10-04T17:55:47;10.60;99.90
19031;DHT22;9648;51.130;13.978;2022-10-04T17:58:18;10.60;99.90
19031;DHT22;9648;51.130;13.978;2022-10-04T18:00:59;10.50;99.90
19031;DHT22;9648;51.130;13.978;2022-10-04T18:03:34;10.50;99.90
19031;DHT22;9648;51.130;13.978;2022-10-04T18:06:15;10.50;99.90
19031;DHT22;9648;51.130;13.978;2022-10-04T18:08:49;10.40;99.90
19031;DHT22;9648;51.130;13.978;2022-10-04T18:11:25;10.40;99.90
19031;DHT22;9648;51.130;13.978;2022-10-04T18:13:59;10.40;99.90
19031;DHT22;9648;51.130;13.978;2022-10-04T18:16:29;10.30;99.90
19031;DHT22;9648;51.130;13.978;2022-10-04T18:19:07;10.30;99.90
19031;DHT22;9648;51.130;13.978;2022-10-04T18:21:50;10.20;99.90
19031;DHT22;9648;51.130;13.978;2022-10-04T18:24:20;10.20;99.90